createdAt,value
2019-02-17T00:02:12.879Z,2.60
2019-02-17T00:04:43.789Z,2.60
2019-02-17T00:07:14.715Z,2.50
2019-02-17T00:09:45.587Z,2.40
2019-02-17T00:12:16.335Z,2.40
2019-02-17T00:14:46.972Z,2.40
2019-02-17T00:17:17.529Z,2.40
2019-02-17T00:19:48.445Z,2.40
2019-02-17T00:22:19.008Z,2.30
2019-02-17T00:24:49.599Z,2.30
2019-02-17T00:27:20.420Z,2.30
2019-02-17T00:29:51.555Z,2.30
2019-02-17T00:32:22.085Z,2.20
2019-02-17T00:34:53.258Z,2.00
2019-02-17T00:37:23.811Z,2.00
2019-02-17T00:39:55.108Z,1.90
2019-02-17T00:42:25.672Z,1.90
2019-02-17T00:44:56.289Z,1.80
2019-02-17T00:47:26.842Z,1.70
2019-02-17T00:49:57.456Z,1.70
2019-02-17T00:52:28.017Z,1.80
2019-02-17T00:54:58.541Z,1.90
2019-02-17T00:57:29.093Z,1.80
2019-02-17T01:00:00.156Z,1.80
2019-02-17T01:02:30.899Z,1.70
2019-02-17T01:05:01.479Z,1.70
2019-02-17T01:07:32.019Z,1.60
2019-02-17T01:10:02.637Z,1.70
2019-02-17T01:12:33.191Z,1.60
2019-02-17T01:15:03.861Z,1.60
2019-02-17T01:17:34.755Z,1.60
2019-02-17T01:20:05.895Z,1.50
2019-02-17T01:22:36.449Z,1.50
2019-02-17T01:25:07.669Z,1.40
2019-02-17T01:27:38.242Z,1.30
2019-02-17T01:30:11.101Z,1.30
2019-02-17T01:32:41.664Z,1.20
2019-02-17T01:35:12.204Z,1.20
2019-02-17T01:37:42.765Z,1.10
2019-02-17T01:40:14.200Z,1.10
2019-02-17T01:42:45.155Z,1.10
2019-02-17T01:45:15.716Z,1.10
2019-02-17T01:47:46.290Z,1.10
2019-02-17T01:50:17.251Z,1.10
2019-02-17T01:52:47.812Z,1.00
2019-02-17T01:55:18.853Z,0.80
2019-02-17T01:57:49.753Z,0.80
2019-02-17T02:00:20.322Z,0.80
2019-02-17T02:02:51.197Z,0.80
2019-02-17T02:05:21.794Z,0.90
2019-02-17T02:07:52.359Z,1.00
2019-02-17T02:10:22.896Z,1.00
2019-02-17T02:12:53.485Z,0.90
2019-02-17T02:15:24.042Z,0.90
2019-02-17T02:17:55.367Z,0.90
2019-02-17T02:20:26.519Z,0.90
2019-02-17T02:22:57.532Z,0.80
2019-02-17T02:25:28.101Z,0.70
2019-02-17T02:27:58.718Z,0.60
2019-02-17T02:30:29.267Z,0.60
2019-02-17T02:33:00.215Z,0.60
2019-02-17T02:35:30.781Z,0.70
2019-02-17T02:38:01.438Z,0.60
2019-02-17T02:40:31.984Z,0.40
2019-02-17T02:43:02.589Z,0.40
2019-02-17T02:45:33.416Z,0.40
2019-02-17T02:48:03.927Z,0.50
2019-02-17T02:50:34.593Z,0.50
2019-02-17T02:53:05.256Z,0.50
2019-02-17T02:55:36.136Z,0.50
2019-02-17T02:58:06.710Z,0.60
2019-02-17T03:00:37.719Z,0.60
2019-02-17T03:03:08.519Z,0.70
2019-02-17T03:05:44.357Z,0.70
2019-02-17T03:08:14.916Z,0.60
2019-02-17T03:10:45.551Z,0.70
2019-02-17T03:13:16.114Z,0.70
2019-02-17T03:15:47.094Z,0.80
2019-02-17T03:18:17.679Z,0.70
2019-02-17T03:20:48.296Z,0.60
2019-02-17T03:23:18.854Z,0.50
2019-02-17T03:25:49.761Z,0.30
2019-02-17T03:28:20.322Z,0.20
2019-02-17T03:30:50.924Z,0.20
2019-02-17T03:33:21.485Z,0.20
2019-02-17T03:35:52.450Z,0.10
2019-02-17T03:38:23.027Z,0.10
2019-02-17T03:40:53.594Z,0.10
2019-02-17T03:43:24.547Z,0.20
2019-02-17T03:45:55.121Z,0.30
2019-02-17T03:48:26.008Z,0.40
2019-02-17T03:50:56.893Z,0.50
2019-02-17T03:53:27.442Z,0.50
2019-02-17T03:55:58.070Z,0.50
2019-02-17T03:58:28.943Z,0.60
2019-02-17T04:00:59.531Z,0.60
2019-02-17T04:03:30.413Z,0.60
2019-02-17T04:06:00.985Z,0.70
2019-02-17T04:08:31.543Z,0.60
2019-02-17T04:11:02.191Z,0.50
2019-02-17T04:13:32.718Z,0.60
2019-02-17T04:16:03.338Z,0.60
2019-02-17T04:18:33.865Z,0.60
2019-02-17T04:21:04.814Z,0.60
2019-02-17T04:23:35.360Z,0.60
2019-02-17T04:26:06.527Z,0.60
2019-02-17T04:28:37.755Z,0.60
2019-02-17T04:31:08.701Z,0.60
2019-02-17T04:33:39.255Z,0.60
2019-02-17T04:36:10.246Z,0.70
2019-02-17T04:38:41.174Z,0.80
2019-02-17T04:41:11.776Z,0.70
2019-02-17T04:43:42.618Z,0.80
2019-02-17T04:46:13.242Z,0.70
2019-02-17T04:48:43.860Z,0.70
2019-02-17T04:51:14.421Z,0.70
2019-02-17T04:53:44.961Z,0.60
2019-02-17T04:56:15.546Z,0.60
2019-02-17T04:58:46.078Z,0.60
2019-02-17T05:01:16.638Z,0.70
2019-02-17T05:03:47.191Z,0.80
2019-02-17T05:06:17.769Z,0.80
2019-02-17T05:08:48.305Z,0.80
2019-02-17T05:11:18.937Z,0.80
2019-02-17T05:13:50.159Z,0.70
2019-02-17T05:16:20.838Z,0.60
2019-02-17T05:18:51.363Z,0.50
2019-02-17T05:21:21.961Z,0.30
2019-02-17T05:23:52.852Z,0.40
2019-02-17T05:26:23.426Z,0.30
2019-02-17T05:28:56.490Z,0.30
2019-02-17T05:31:26.251Z,0.30
2019-02-17T05:33:57.256Z,0.30
2019-02-17T05:36:27.906Z,0.20
2019-02-17T05:38:58.467Z,0.10
2019-02-17T05:41:29.099Z,0.10
2019-02-17T05:43:59.943Z,0.20
2019-02-17T05:46:30.522Z,0.00
2019-02-17T05:49:01.141Z,-0.10
2019-02-17T05:51:31.703Z,-0.20
2019-02-17T05:54:02.307Z,-0.30
2019-02-17T05:56:33.204Z,-0.40
2019-02-17T05:59:03.828Z,-0.30
2019-02-17T06:01:34.757Z,-0.30
2019-02-17T06:04:05.389Z,-0.20
2019-02-17T06:06:35.945Z,-0.20
2019-02-17T06:09:07.127Z,-0.30
2019-02-17T06:11:38.014Z,-0.30
2019-02-17T06:14:08.594Z,-0.30
2019-02-17T06:16:39.226Z,-0.30
2019-02-17T06:19:09.862Z,-0.40
2019-02-17T06:21:40.414Z,-0.60
2019-02-17T06:24:11.003Z,-0.70
2019-02-17T06:26:41.893Z,-0.70
2019-02-17T06:29:12.489Z,-0.40
2019-02-17T06:31:43.327Z,-0.20
2019-02-17T06:34:14.012Z,-0.20
2019-02-17T06:36:44.572Z,-0.10
2019-02-17T06:39:15.205Z,0.00
2019-02-17T06:41:45.814Z,0.00
2019-02-17T06:44:16.454Z,0.10
2019-02-17T06:46:51.053Z,0.00
2019-02-17T06:49:21.592Z,0.20
2019-02-17T06:51:52.148Z,0.20
2019-02-17T06:54:22.793Z,0.00
2019-02-17T06:57:07.631Z,-0.10
2019-02-17T06:59:38.599Z,0.00
2019-02-17T07:02:09.218Z,0.20
2019-02-17T07:05:01.689Z,0.20
2019-02-17T07:07:32.478Z,0.30
2019-02-17T07:10:03.143Z,0.20
2019-02-17T07:12:33.675Z,0.00
2019-02-17T07:15:04.328Z,0.20
2019-02-17T07:17:34.872Z,0.10
2019-02-17T07:20:05.817Z,0.10
2019-02-17T07:22:36.389Z,0.20
2019-02-17T07:25:07.160Z,0.30
2019-02-17T07:27:37.726Z,0.40
2019-02-17T07:30:08.396Z,0.40
2019-02-17T07:32:38.968Z,0.30
2019-02-17T07:35:09.590Z,0.30
2019-02-17T07:37:40.140Z,0.50
2019-02-17T07:40:11.111Z,0.60
2019-02-17T07:42:41.660Z,0.80
2019-02-17T07:45:12.401Z,0.90
2019-02-17T07:47:42.966Z,1.70
2019-02-17T07:50:13.658Z,1.60
2019-02-17T07:52:44.212Z,1.30
2019-02-17T07:55:14.792Z,1.20
2019-02-17T07:57:45.336Z,1.30
2019-02-17T08:00:15.950Z,1.40
2019-02-17T08:02:46.494Z,1.60
2019-02-17T08:05:17.119Z,1.60
2019-02-17T08:07:48.036Z,1.60
2019-02-17T08:10:18.688Z,1.70
2019-02-17T08:12:49.275Z,1.80
2019-02-17T08:15:19.942Z,1.80
2019-02-17T08:17:50.575Z,1.90
2019-02-17T08:20:21.270Z,1.90
2019-02-17T08:22:51.831Z,1.90
2019-02-17T08:25:22.409Z,2.00
2019-02-17T08:27:52.976Z,2.40
2019-02-17T08:30:23.467Z,2.40
2019-02-17T08:32:54.409Z,2.60
2019-02-17T08:35:25.161Z,2.70
2019-02-17T08:37:55.813Z,2.70
2019-02-17T08:40:26.390Z,2.80
2019-02-17T08:42:57.223Z,2.90
2019-02-17T08:45:27.909Z,2.90
2019-02-17T08:47:58.687Z,2.90
2019-02-17T08:50:29.282Z,3.00
2019-02-17T08:53:00.170Z,3.00
2019-02-17T08:55:31.169Z,3.00
2019-02-17T08:58:01.884Z,3.00
2019-02-17T09:00:32.876Z,3.10
2019-02-17T09:03:03.467Z,3.10
2019-02-17T09:05:43.599Z,3.00
2019-02-17T09:08:06.463Z,3.00
2019-02-17T09:10:37.837Z,2.80
2019-02-17T09:13:08.771Z,2.80
2019-02-17T09:15:40.558Z,3.00
2019-02-17T09:18:11.157Z,3.10
2019-02-17T09:20:41.795Z,3.20
2019-02-17T09:23:12.689Z,3.40
2019-02-17T09:25:43.380Z,3.50
2019-02-17T09:28:14.009Z,3.50
2019-02-17T09:30:45.037Z,3.70
2019-02-17T09:33:15.582Z,3.80
2019-02-17T09:35:46.279Z,3.90
2019-02-17T09:38:17.303Z,4.00
2019-02-17T09:40:48.222Z,4.20
2019-02-17T09:43:18.839Z,4.40
2019-02-17T09:45:49.456Z,4.50
2019-02-17T09:48:19.998Z,4.60
2019-02-17T09:50:50.936Z,4.60
2019-02-17T09:53:22.154Z,4.70
2019-02-17T09:55:55.103Z,4.80
2019-02-17T09:58:25.898Z,4.90
2019-02-17T10:00:56.627Z,5.10
2019-02-17T10:03:27.364Z,5.20
2019-02-17T10:05:58.283Z,5.20
2019-02-17T10:08:29.418Z,5.20
2019-02-17T10:11:00.366Z,5.30
2019-02-17T10:13:31.622Z,5.50
2019-02-17T10:16:02.591Z,5.50
2019-02-17T10:18:33.566Z,5.50
2019-02-17T10:21:05.000Z,5.60
2019-02-17T10:23:35.626Z,5.90
2019-02-17T10:26:06.303Z,5.80
2019-02-17T10:28:42.481Z,5.90
2019-02-17T10:31:09.196Z,6.20
2019-02-17T10:33:40.216Z,6.30
2019-02-17T10:36:11.165Z,6.40
2019-02-17T10:38:42.585Z,6.30
2019-02-17T10:41:15.223Z,6.60
2019-02-17T10:43:46.233Z,6.50
2019-02-17T10:46:17.282Z,6.60
2019-02-17T10:48:48.162Z,6.80
2019-02-17T10:51:19.196Z,7.00
2019-02-17T10:53:50.097Z,7.10
2019-02-17T10:56:21.039Z,7.30
2019-02-17T10:58:51.945Z,7.60
2019-02-17T11:01:22.526Z,7.60
2019-02-17T11:04:08.628Z,7.80
2019-02-17T11:06:39.291Z,8.10
2019-02-17T11:09:20.753Z,8.00
2019-02-17T11:11:52.688Z,8.00
2019-02-17T11:14:23.307Z,9.00
2019-02-17T11:16:54.192Z,9.60
2019-02-17T11:19:24.860Z,10.10
2019-02-17T11:21:55.765Z,10.90
2019-02-17T11:24:26.458Z,11.00
2019-02-17T11:26:57.033Z,11.80
2019-02-17T11:29:28.637Z,12.20
2019-02-17T11:31:59.621Z,12.80
2019-02-17T11:34:30.735Z,12.60
2019-02-17T11:37:01.675Z,12.20
2019-02-17T11:39:32.552Z,11.90
2019-02-17T11:42:03.405Z,12.10
2019-02-17T11:44:34.329Z,12.70
2019-02-17T11:47:07.262Z,12.90
2019-02-17T11:49:37.303Z,13.20
2019-02-17T11:52:08.356Z,13.70
2019-02-17T11:54:39.646Z,13.70
2019-02-17T11:57:10.228Z,13.30
2019-02-17T11:59:41.745Z,13.40
2019-02-17T12:02:12.375Z,13.40
2019-02-17T12:04:43.676Z,13.70
2019-02-17T12:07:14.869Z,14.00
2019-02-17T12:09:45.470Z,14.00
2019-02-17T12:12:16.451Z,13.40
2019-02-17T12:14:47.177Z,13.70
2019-02-17T12:17:18.868Z,13.90
2019-02-17T12:19:50.083Z,14.00
2019-02-17T12:22:24.319Z,13.80
2019-02-17T12:25:13.810Z,13.70
2019-02-17T12:28:06.539Z,14.00
2019-02-17T12:30:37.984Z,14.20
2019-02-17T12:33:18.245Z,14.70
2019-02-17T12:35:41.645Z,15.00
2019-02-17T12:38:12.265Z,15.30
2019-02-17T12:40:42.875Z,15.00
2019-02-17T12:43:13.891Z,15.30
2019-02-17T12:45:44.524Z,14.80
2019-02-17T12:48:15.121Z,15.10
2019-02-17T12:50:46.652Z,15.30
2019-02-17T12:53:17.695Z,15.20
2019-02-17T12:55:48.692Z,15.00
2019-02-17T12:58:29.371Z,14.70
2019-02-17T13:00:52.314Z,14.70
2019-02-17T13:03:28.438Z,14.50
2019-02-17T13:05:56.843Z,15.10
2019-02-17T13:08:27.504Z,15.50
2019-02-17T13:10:58.424Z,15.20
2019-02-17T13:13:29.152Z,15.40
2019-02-17T13:15:59.742Z,15.00
2019-02-17T13:18:30.448Z,14.60
2019-02-17T13:21:01.655Z,14.90
2019-02-17T13:23:32.267Z,15.40
2019-02-17T13:26:02.853Z,15.50
2019-02-17T13:28:33.955Z,15.40
2019-02-17T13:31:04.927Z,15.30
2019-02-17T13:33:39.169Z,15.80
2019-02-17T13:36:08.413Z,16.30
2019-02-17T13:38:39.048Z,16.00
2019-02-17T13:41:09.934Z,15.80
2019-02-17T13:43:40.894Z,15.90
2019-02-17T13:46:11.454Z,15.90
2019-02-17T13:48:42.172Z,16.30
2019-02-17T13:51:13.090Z,16.30
2019-02-17T13:53:43.733Z,17.20
2019-02-17T13:56:14.443Z,17.90
2019-02-17T13:58:45.022Z,17.80
2019-02-17T14:01:16.048Z,17.80
2019-02-17T14:03:48.845Z,18.00
2019-02-17T14:06:19.360Z,17.90
2019-02-17T14:08:50.302Z,18.30
2019-02-17T14:11:21.235Z,19.00
2019-02-17T14:13:51.802Z,18.60
2019-02-17T14:16:22.812Z,17.40
2019-02-17T14:18:53.378Z,17.00
2019-02-17T14:21:23.998Z,17.40
2019-02-17T14:23:55.210Z,17.50
2019-02-17T14:26:26.165Z,17.60
2019-02-17T14:28:56.745Z,17.70
2019-02-17T14:31:27.408Z,18.20
2019-02-17T14:33:58.919Z,18.10
2019-02-17T14:36:30.115Z,17.90
2019-02-17T14:39:01.298Z,18.60
2019-02-17T14:41:31.995Z,18.10
2019-02-17T14:44:03.385Z,17.90
2019-02-17T14:46:34.057Z,17.90
2019-02-17T14:49:04.677Z,17.60
2019-02-17T14:51:35.326Z,18.00
2019-02-17T14:54:06.728Z,18.10
2019-02-17T14:56:37.800Z,17.90
2019-02-17T14:59:08.786Z,17.80
2019-02-17T15:01:39.459Z,18.00
2019-02-17T15:04:10.787Z,18.10
2019-02-17T15:06:41.806Z,18.20
2019-02-17T15:09:12.614Z,18.20
2019-02-17T15:11:43.556Z,18.10
2019-02-17T15:14:14.178Z,17.70
2019-02-17T15:16:45.204Z,18.10
2019-02-17T15:19:16.113Z,17.50
2019-02-17T15:21:46.800Z,16.80
2019-02-17T15:24:17.414Z,16.80
2019-02-17T15:26:48.465Z,17.00
2019-02-17T15:29:19.411Z,17.10
2019-02-17T15:31:50.434Z,17.50
2019-02-17T15:34:21.010Z,16.60
2019-02-17T15:36:51.660Z,16.40
2019-02-17T15:39:22.245Z,16.70
2019-02-17T15:41:53.271Z,16.40
2019-02-17T15:44:23.832Z,15.80
2019-02-17T15:46:54.920Z,15.10
2019-02-17T15:49:25.524Z,14.80
2019-02-17T15:51:56.489Z,13.90
2019-02-17T15:54:27.065Z,13.50
2019-02-17T15:56:57.637Z,13.20
2019-02-17T15:59:29.277Z,12.60
2019-02-17T16:02:00.287Z,12.40
2019-02-17T16:04:30.881Z,12.20
2019-02-17T16:07:01.545Z,12.10
2019-02-17T16:09:32.155Z,12.00
2019-02-17T16:12:02.744Z,11.80
2019-02-17T16:14:33.431Z,11.70
2019-02-17T16:17:03.993Z,11.50
2019-02-17T16:19:34.734Z,11.50
2019-02-17T16:22:05.642Z,11.40
2019-02-17T16:24:36.623Z,11.40
2019-02-17T16:27:07.175Z,11.30
2019-02-17T16:29:38.139Z,11.20
2019-02-17T16:32:08.705Z,11.10
2019-02-17T16:34:39.393Z,10.90
2019-02-17T16:37:09.961Z,10.80
2019-02-17T16:39:40.627Z,10.70
2019-02-17T16:42:11.243Z,10.50
2019-02-17T16:44:42.484Z,10.40
2019-02-17T16:47:13.145Z,10.30
2019-02-17T16:49:43.719Z,10.20
2019-02-17T16:52:14.948Z,10.00
2019-02-17T16:54:45.892Z,9.90
2019-02-17T16:57:17.046Z,9.80
2019-02-17T16:59:47.657Z,9.70
2019-02-17T17:02:18.661Z,9.60
2019-02-17T17:04:49.275Z,9.60
2019-02-17T17:07:21.192Z,9.50
2019-02-17T17:09:51.849Z,9.40
2019-02-17T17:12:24.857Z,9.30
2019-02-17T17:14:55.590Z,9.20
2019-02-17T17:17:26.673Z,9.10
2019-02-17T17:19:57.231Z,9.00
2019-02-17T17:22:28.188Z,8.80
2019-02-17T17:24:58.744Z,8.80
2019-02-17T17:27:30.437Z,8.70
2019-02-17T17:30:01.752Z,8.70
2019-02-17T17:32:32.355Z,8.70
2019-02-17T17:35:03.371Z,8.60
2019-02-17T17:37:33.952Z,8.60
2019-02-17T17:40:05.137Z,8.50
2019-02-17T17:42:35.686Z,8.50
2019-02-17T17:45:08.270Z,8.40
2019-02-17T17:47:38.844Z,8.30
2019-02-17T17:50:11.583Z,8.30
2019-02-17T17:52:42.619Z,8.30
2019-02-17T17:55:13.386Z,8.30
2019-02-17T17:57:44.261Z,8.20
2019-02-17T18:00:17.424Z,8.20
2019-02-17T18:02:48.056Z,8.20
2019-02-17T18:05:18.697Z,8.10
2019-02-17T18:07:49.249Z,8.00
2019-02-17T18:10:19.866Z,8.00
2019-02-17T18:12:50.415Z,7.90
2019-02-17T18:15:21.122Z,7.90
2019-02-17T18:17:54.817Z,7.90
2019-02-17T18:20:24.560Z,7.90
2019-02-17T18:22:55.131Z,7.80
2019-02-17T18:25:25.755Z,7.80
2019-02-17T18:27:56.319Z,7.80
2019-02-17T18:30:26.963Z,7.70
2019-02-17T18:32:57.524Z,7.60
2019-02-17T18:35:28.137Z,7.60
2019-02-17T18:37:58.702Z,7.60
2019-02-17T18:40:29.443Z,7.60
2019-02-17T18:43:00.096Z,7.70
2019-02-17T18:45:30.646Z,7.80
2019-02-17T18:48:01.246Z,7.90
2019-02-17T18:50:31.803Z,7.90
2019-02-17T18:53:02.431Z,7.90
2019-02-17T18:55:32.984Z,7.90
2019-02-17T18:58:03.670Z,7.80
2019-02-17T19:00:34.286Z,7.70
2019-02-17T19:03:05.035Z,7.70
2019-02-17T19:05:36.013Z,7.70
2019-02-17T19:08:06.588Z,7.80
2019-02-17T19:10:37.229Z,7.80
2019-02-17T19:13:07.785Z,7.80
2019-02-17T19:15:38.778Z,7.80
2019-02-17T19:18:10.231Z,7.80
2019-02-17T19:20:41.539Z,7.80
2019-02-17T19:23:12.629Z,7.70
2019-02-17T19:25:43.684Z,7.60
2019-02-17T19:28:14.955Z,7.60
2019-02-17T19:30:46.019Z,7.50
2019-02-17T19:33:17.311Z,7.50
2019-02-17T19:35:48.453Z,7.30
2019-02-17T19:38:19.165Z,7.00
2019-02-17T19:40:49.721Z,6.80
2019-02-17T19:43:20.582Z,6.70
2019-02-17T19:45:51.235Z,6.60
2019-02-17T19:48:21.979Z,6.40
2019-02-17T19:50:52.701Z,6.40
2019-02-17T19:53:23.409Z,6.40
2019-02-17T19:55:54.014Z,6.20
2019-02-17T19:58:25.247Z,6.10
2019-02-17T20:00:56.092Z,5.90
2019-02-17T20:03:45.831Z,5.90
2019-02-17T20:06:19.194Z,5.80
2019-02-17T20:08:50.488Z,5.70
2019-02-17T20:11:21.608Z,5.60
2019-02-17T20:13:52.392Z,5.60
2019-02-17T20:16:23.684Z,5.60
2019-02-17T20:18:55.285Z,5.50
2019-02-17T20:21:26.045Z,5.50
2019-02-17T20:23:57.394Z,5.50
2019-02-17T20:26:28.512Z,5.50
2019-02-17T20:28:59.391Z,5.60
2019-02-17T20:31:30.379Z,5.50
2019-02-17T20:34:01.474Z,5.50
2019-02-17T20:36:32.206Z,5.50
2019-02-17T20:39:04.288Z,5.40
2019-02-17T20:41:35.436Z,5.30
2019-02-17T20:44:07.078Z,5.20
2019-02-17T20:46:37.770Z,5.10
2019-02-17T20:49:08.697Z,5.00
2019-02-17T20:51:39.629Z,4.90
2019-02-17T20:54:10.501Z,4.80
2019-02-17T20:56:41.321Z,4.80
2019-02-17T20:59:11.878Z,4.80
2019-02-17T21:01:42.452Z,4.80
2019-02-17T21:04:13.133Z,4.70
2019-02-17T21:06:43.691Z,4.70
2019-02-17T21:09:14.658Z,4.70
2019-02-17T21:11:45.213Z,4.70
2019-02-17T21:14:15.923Z,4.70
2019-02-17T21:16:46.833Z,4.60
2019-02-17T21:19:17.788Z,4.50
2019-02-17T21:21:49.248Z,4.30
2019-02-17T21:24:20.082Z,4.10
2019-02-17T21:26:51.246Z,4.00
2019-02-17T21:29:21.789Z,4.10
2019-02-17T21:31:52.520Z,4.10
2019-02-17T21:34:23.092Z,4.10
2019-02-17T21:36:53.811Z,4.10
2019-02-17T21:39:24.804Z,4.00
2019-02-17T21:41:55.885Z,4.00
2019-02-17T21:44:26.440Z,4.00
2019-02-17T21:46:57.044Z,4.00
2019-02-17T21:49:27.968Z,4.00
2019-02-17T21:51:58.669Z,4.10
2019-02-17T21:54:29.474Z,4.00
2019-02-17T21:57:00.460Z,4.10
2019-02-17T21:59:31.400Z,4.00
2019-02-17T22:02:01.957Z,4.00
2019-02-17T22:04:32.951Z,3.90
2019-02-17T22:07:03.851Z,3.80
2019-02-17T22:09:34.521Z,3.80
2019-02-17T22:12:05.107Z,3.80
2019-02-17T22:14:35.784Z,3.80
2019-02-17T22:17:06.346Z,3.70
2019-02-17T22:19:37.010Z,3.70
2019-02-17T22:22:07.547Z,3.70
2019-02-17T22:24:38.134Z,3.70
2019-02-17T22:27:08.699Z,3.70
2019-02-17T22:29:39.363Z,3.70
2019-02-17T22:32:09.922Z,3.70
2019-02-17T22:34:40.466Z,3.70
2019-02-17T22:37:11.187Z,3.70
2019-02-17T22:39:42.044Z,3.60
2019-02-17T22:42:12.733Z,3.50
2019-02-17T22:44:43.278Z,3.50
2019-02-17T22:47:14.182Z,3.50
2019-02-17T22:49:44.731Z,3.50
2019-02-17T22:52:16.735Z,3.50
2019-02-17T22:54:47.284Z,3.50
2019-02-17T22:57:17.954Z,3.60
2019-02-17T22:59:48.530Z,3.70
2019-02-17T23:02:19.191Z,3.70
2019-02-17T23:04:49.852Z,3.70
2019-02-17T23:07:20.408Z,3.70
2019-02-17T23:09:51.457Z,3.60
2019-02-17T23:12:22.006Z,3.60
2019-02-17T23:14:53.031Z,3.50
2019-02-17T23:17:23.567Z,3.50
2019-02-17T23:19:54.588Z,3.40
2019-02-17T23:22:25.143Z,3.40
2019-02-17T23:24:56.129Z,3.40
2019-02-17T23:27:26.695Z,3.50
2019-02-17T23:29:57.391Z,3.40
2019-02-17T23:32:28.225Z,3.50
2019-02-17T23:34:59.624Z,3.50
2019-02-17T23:37:30.182Z,3.50
2019-02-17T23:40:00.830Z,3.50
2019-02-17T23:42:31.395Z,3.50
2019-02-17T23:45:02.097Z,3.50
2019-02-17T23:47:32.679Z,3.60
2019-02-17T23:50:03.354Z,3.60
2019-02-17T23:52:34.850Z,3.60
2019-02-17T23:55:05.479Z,3.70
2019-02-17T23:57:36.038Z,3.70
